• Join FlightAware (Why Join?)
  • Login
  • US Flag 
09:36AM EDT


 

Airport Tracker/Info


-or-


 

Live Flight TrackerFlight Track Log ✈ N524DW ✈ 07-May-2013 ✈ KTDF - KGGG

Flight Track Log - Related Links

Times and Time Zones

All times are in EDT time to prevent confusion due to time zone crossing. See the N524DW flight status page for this flight to view local times or setup timezone preferences in your user account.

Time Position Orientation Groundspeed Altitude Reporting Facility
EDT Latitude Longitude Course Direction KTS MPH feet Rate Location/Type
03:37PM 36.2278 -79.1017 258° West 228 262 6,500  Level Washington Center
03:38PM 36.2228 -79.1297 258° West 257 296 7,100 2,400 Climbing Washington Center
03:39PM 36.1683 -79.2069 229° Southwest 301 346 9,900 2,100 Climbing Washington Center
03:40PM 36.1167 -79.2586 219° Southwest 295 339 11,500 3,120 Climbing Washington Center
03:41PM 36.0386 -79.3500 223° Southwest 317 365 16,100 2,940 Climbing Washington Center
03:43PM 35.9961 -79.6422 260° West 349 402 21,700 2,640 Climbing Atlanta Center
03:44PM 35.9731 -79.7564 256° West 372 428 25,200 2,700 Climbing Atlanta Center
03:45PM 35.9522 -79.8731 258° West 372 428 27,200 1,080 Climbing Atlanta Center
03:46PM 35.9275 -80.0075 257° West 383 441 27,400 1,020 Climbing Atlanta Center
03:47PM 35.9050 -80.1522 259° West 413 475 29,300 1,680 Climbing Atlanta Center
03:48PM 35.8789 -80.3200 259° West 442 509 30,800 1,500 Climbing Atlanta Center
03:49PM 35.8519 -80.4700 258° West 459 528 32,300 1,020 Climbing Atlanta Center
03:50PM 35.8269 -80.6194 258° West 454 522 32,900 780 Climbing Atlanta Center
03:51PM 35.7958 -80.7719 256° West 454 522 33,900 1,620 Climbing Atlanta Center
03:52PM 35.7703 -80.9189 258° West 448 516 36,200 1,200 Climbing Atlanta Center
03:53PM 35.7511 -81.0628 261° West 434 499 36,300 180 Climbing Atlanta Center
03:54PM 35.7192 -81.2150 256° West 439 505 36,600 480 Climbing Atlanta Center
03:55PM 35.6847 -81.3592 254° West 453 521 37,300 780 Climbing Atlanta Center
03:56PM 35.6608 -81.5108 259° West 458 527 38,200 840 Climbing Atlanta Center
03:57PM 35.6389 -81.6547 259° West 442 509 39,000 720 Climbing Atlanta Center
03:58PM 35.6144 -81.7983 258° West 430 495 39,700 660 Climbing Atlanta Center
03:59PM 35.5856 -81.9344 255° West 424 488 40,400 480 Climbing Atlanta Center
04:00PM 35.5586 -82.0731 257° West 419 482 40,700 240 Climbing Atlanta Center
04:01PM 35.5314 -82.2064 256° West 409 471 40,900 60 Climbing Atlanta Center
04:02PM 35.5042 -82.3447 256° West 415 478 40,900  Level Atlanta Center
04:03PM 35.4769 -82.4883 257° West 421 484 40,900  Level Atlanta Center
04:04PM 35.4492 -82.6214 256° West 421 484 41,000 300 Climbing Atlanta Center
04:05PM 35.4236 -82.7594 257° West 415 478 41,500 180 Climbing Atlanta Center
04:06PM 35.3958 -82.8972 256° West 415 478 41,400 180 Descending Atlanta Center
04:07PM 35.3678 -83.0378 256° West 415 478 41,900 240 Climbing Atlanta Center
04:08PM 35.3417 -83.1731 257° West 409 471 41,900 -60 Level Atlanta Center
04:09PM 35.3156 -83.3006 256° West 416 479 41,800  Descending Atlanta Center
04:10PM 35.2828 -83.4511 255° West 416 479 41,900  Climbing Atlanta Center
04:11PM 35.2542 -83.5911 256° West 421 484 41,900  Level Atlanta Center
04:12PM 35.2233 -83.7361 255° West 421 484 41,900  Level Atlanta Center
04:13PM 35.1944 -83.8761 256° West 426 490 41,900 -60 Level Atlanta Center
04:14PM 35.1653 -84.0183 256° West 432 497 41,800 -60 Descending Atlanta Center
04:15PM 35.1361 -84.1606 256° West 432 497 41,800  Level Atlanta Center
04:16PM 35.1047 -84.3028 255° West 432 497 41,900  Climbing Atlanta Center
04:17PM 35.0772 -84.4447 257° West 432 497 41,900  Level Atlanta Center
04:18PM 35.0472 -84.5894 256° West 432 497 41,900  Level Atlanta Center
04:19PM 35.0133 -84.7311 254° West 432 497 41,900  Level Atlanta Center
04:20PM 34.9811 -84.8728 255° West 432 497 41,900  Level Atlanta Center
04:21PM 34.9528 -85.0194 257° West 432 497 41,900  Level Atlanta Center
04:22PM 34.9244 -85.1611 256° West 432 497 42,000  Climbing Atlanta Center
04:23PM 34.8878 -85.2997 252° West 432 497 42,000  Level Atlanta Center
04:24PM 34.8547 -85.4411 254° West 432 497 42,100  Climbing Atlanta Center
04:25PM 34.8239 -85.5847 255° West 432 497 42,000  Descending Atlanta Center
04:26PM 34.7928 -85.7258 255° West 432 497 42,100 60 Climbing Atlanta Center
04:27PM 34.7617 -85.8642 255° West 432 497 42,200 60 Climbing Atlanta Center
04:28PM 34.7322 -86.0053 256° West 432 497 42,300  Climbing Atlanta Center
04:29PM 34.7008 -86.1458 255° West 432 497 42,300  Level Atlanta Center
04:30PM 34.6669 -86.2839 253° West 432 497 42,300  Level Atlanta Center
04:31PM 34.6331 -86.4219 253° West 432 497 42,300  Level Atlanta Center
04:32PM 34.6011 -86.5622 255° West 432 497 42,400  Climbing Atlanta Center
04:35PM 34.5253 -86.9036 255° West 444 511 42,400  Level Memphis Center
04:36PM 34.4931 -87.0208 252° West 446 513 42,500  Climbing Memphis Center
04:37PM 34.4569 -87.1633 253° West 440 506 42,500  Level Memphis Center
04:38PM 34.4253 -87.3106 255° West 422 486 42,500  Level Memphis Center
04:39PM 34.3889 -87.4478 252° West 428 493 42,600  Climbing Memphis Center
04:40PM 34.3544 -87.5872 253° West 434 499 42,600  Level Memphis Center
04:41PM 34.3200 -87.7267 253° West 434 499 42,600 60 Level Memphis Center
04:42PM 34.2917 -87.8658 256° West 434 499 42,800 60 Climbing Memphis Center
04:43PM 34.2628 -87.9872 254° West 434 499 42,800 -60 Level Memphis Center
04:44PM 34.2278 -88.1239 253° West 434 499 42,700 -60 Descending Memphis Center
04:45PM 34.1864 -88.2756 252° West 429 494 42,700  Level Memphis Center
04:46PM 34.1533 -88.4144 254° West 429 494 42,700 60 Level Memphis Center
04:47PM 34.1200 -88.5531 254° West 429 494 42,900 120 Climbing Memphis Center
04:48PM 34.0864 -88.6869 253° West 429 494 43,000  Climbing Memphis Center
04:49PM 34.0464 -88.8256 251° West 429 494 43,000  Level Memphis Center
04:50PM 34.0103 -88.9589 252° West 429 494 43,000  Level Memphis Center
04:51PM 33.9825 -89.0997 257° West 429 494 43,000 -60 Level Memphis Center
04:52PM 33.9464 -89.2353 252° West 429 494 42,900  Descending Memphis Center
04:53PM 33.9100 -89.3711 252° West 429 494 43,000  Climbing Memphis Center
04:54PM 33.8733 -89.5117 253° West 429 494 43,000  Level Memphis Center
04:55PM 33.8389 -89.6469 253° West 429 494 43,000 -60 Level Memphis Center
04:56PM 33.8081 -89.7747 254° West 435 501 42,900 -60 Descending Memphis Center
04:57PM 33.7650 -89.9250 251° West 440 506 42,900  Level Memphis Center
04:58PM 33.7300 -90.0600 253° West 440 506 43,000  Climbing Memphis Center
04:59PM 33.6925 -90.2000 252° West 440 506 43,000  Level Memphis Center
05:00PM 33.6572 -90.3372 253° West 440 506 43,000  Level Memphis Center
05:01PM 33.6194 -90.4744 252° West 440 506 43,000  Level Memphis Center
05:02PM 33.5778 -90.6117 250° West 440 506 43,000  Level Memphis Center
05:03PM 33.5397 -90.7461 251° West 440 506 43,000 -60 Level Memphis Center
05:04PM 33.5017 -90.8853 252° West 440 506 42,900 -60 Descending Memphis Center
05:05PM 33.4656 -91.0222 252° West 440 506 42,900  Level Memphis Center
05:06PM 33.4081 -91.2428 253° West 419 482 42,900  Level Fort Worth Center
05:07PM 33.3689 -91.3772 251° West 441 507 42,900  Level Fort Worth Center
05:08PM 33.3358 -91.5186 254° West 428 493 43,000  Climbing Fort Worth Center
05:09PM 33.2961 -91.6531 251° West 428 493 43,000  Level Fort Worth Center
05:10PM 33.2606 -91.7894 253° West 428 493 43,000  Level Fort Worth Center
05:11PM 33.2206 -91.9211 250° West 433 498 43,000  Level Fort Worth Center
05:12PM 33.1806 -92.0575 251° West 433 498 43,000 -60 Level Fort Worth Center
05:13PM 33.1444 -92.1889 252° West 433 498 42,900 -60 Descending Fort Worth Center
05:14PM 33.1061 -92.3225 251° West 433 498 42,900 -120 Level Fort Worth Center
05:15PM 33.0656 -92.4561 250° West 441 507 42,700 -1,080 Descending Fort Worth Center
05:16PM 33.0247 -92.5897 250° West 436 502 40,800 -1,620 Descending Fort Worth Center
05:17PM 32.9797 -92.7258 249° West 436 502 39,500 -1,380 Descending Fort Worth Center
05:18PM 32.9483 -92.8364 251° West 430 495 38,100 -2,340 Descending Fort Worth Center
05:19PM 32.9114 -92.9669 251° West 425 489 34,900 -3,240 Descending Fort Worth Center
05:20PM 32.8722 -93.0975 250° West 419 482 31,700 -2,580 Descending Fort Worth Center
05:21PM 32.8328 -93.2303 251° West 419 482 29,800 -1,500 Descending Fort Worth Center
05:22PM 32.7953 -93.3606 251° West 419 482 28,700 -1,740 Descending Fort Worth Center
05:23PM 32.7578 -93.4908 251° West 419 482 26,400 -1,500 Descending Fort Worth Center
05:24PM 32.7217 -93.6108 250° West 406 467 25,800 -1,800 Descending Fort Worth Center
05:25PM 32.6878 -93.7306 251° West 394 453 22,900 -2,580 Descending Fort Worth Center
05:26PM 32.6514 -93.8481 250° West 389 448 20,700 -2,580 Descending Fort Worth Center
05:27PM 32.6169 -93.9606 250° West 370 426 17,800 -2,880 Descending Fort Worth Center
05:28PM 32.5803 -94.0728 249° West 352 405 15,000 -2,940 Descending Fort Worth Center
05:29PM 32.5514 -94.1675 250° West 347 399 12,000 -3,240 Descending Fort Worth Center
05:30PM 32.5303 -94.2347 250° West 335 386 10,200 -3,000 Descending Fort Worth Center
05:30PM 32.5208 -94.2747 254° West 329 379 9,400 -2,640 Descending Fort Worth Center
05:31PM 32.4936 -94.3617 250° West 322 371 6,200 -2,640 Descending Fort Worth Center
05:32PM 32.4628 -94.4636 250° West 303 349 3,900 -1,620 Descending Fort Worth Center
05:33PM 32.4353 -94.5336 245° Southwest 285 328 3,000 -780 Descending Fort Worth Center
05:34PM 32.4014 -94.6036 240° Southwest 270 311 2,400 -480 Descending Fort Worth Center
05:35PM 32.3633 -94.6858 241° Southwest 256 295 2,100 -300 Descending Fort Worth Center